EW6434 Weather Reports


Display with metric or nautical units.
time (UTC)temp
F
wind
direction
speed
MPH
gust
MPH
rain 1hr
in
rain 24hr
in
rain mn
in
humidity
%
barometer
mb
20220707004511 56 235 0.0 3.0 0.02 0.12 0.12 78 1013.5
20220707003010 53 267 0.0 1.0 0.02 0.12 0.12 83 1013.5
20220707001513 54 221 0.0 4.0 0.01 0.11 0.11 81 1013.9
20220707000011 57 197 0.0 2.0 0.00 0.10 0.10 67 1013.9
20220706234511 60 239 1.0 6.0 0.00 0.10 0.10 61 1013.6
20220706233013 62 214 2.0 10.0 0.00 0.10 0.10 64 1013.5
20220706231508 63 105 0.0 1.0 0.00 0.10 0.10 62 1012.8
20220706230007 65 240 0.0 6.0 0.00 0.10 0.10 58 1012.8
20220706224506 65 185 1.0 4.0 0.00 0.10 0.10 64 1013.1
20220706223005 64 214 0.0 6.0 0.00 0.10 0.10 62 1013.3
20220706221504 63 224 1.0 4.0 0.01 0.10 0.10 70 1013.5
20220706220004 61 222 0.0 1.0 0.02 0.13 0.10 77 1013.8
20220706214504 59 240 1.0 4.0 0.04 0.13 0.10 77 1014.2
20220706213003 55 224 0.0 1.0 0.10 0.13 0.10 90 1014.4
20220706211503 53 246 0.0 1.0 0.09 0.12 0.09 90 1015.1
20220706210001 54 23 0.0 2.0 0.08 0.21 0.08 85 1015.1
20220706204500 58 34 1.0 12.0 0.06 0.19 0.06 76 1014.8
20220706203103 61 96 0.0 1.0 0.00 0.13 0.00 67 1013.4
20220706201559 63 34 0.0 4.0 0.00 0.13 0.00 52 1013.1
20220706200100 65 108 0.0 4.0 0.00 0.13 0.00 57 1012.8
20220706194558 67 37 0.0 1.0 0.00 0.15 0.00 56 1012.9
20220706193057 69 67 0.0 2.0 0.00 0.15 0.00 49 1012.9
20220706191602 70 240 0.0 2.0 0.00 0.15 0.00 49 1012.7
20220706190055 67 72 0.0 1.0 0.00 0.15 0.00 51 1013.1
20220706184554 68 72 0.0 1.0 0.00 0.16 0.00 53 1013.4
20220706183054 66 216 0.0 0.0 0.00 0.16 0.00 62 1013.4
20220706181551 66 217 0.0 0.0 0.00 0.16 0.00 60 1013.9
20220706180051 69 114 0.0 0.0 0.00 0.16 0.00 48 1014.0
20220706174551 71 235 0.0 3.0 0.00 0.33 0.00 43 1014.1
20220706173050 71 243 0.0 2.0 0.00 0.33 0.00 45 1014.2
20220706171546 70 245 0.0 4.0 0.00 0.33 0.00 50 1014.2
20220706170045 70 226 0.0 1.0 0.00 0.33 0.00 50 1014.3
20220706164547 68 119 0.0 1.0 0.00 0.33 0.00 54 1014.3
20220706163038 66 184 0.0 0.0 0.00 0.33 0.00 61 1014.4
20220706161534 64 65 0.0 0.0 0.00 0.33 0.00 66 1014.8
20220706160035 62 65 0.0 0.0 0.00 0.33 0.00 65 1015.0
20220706154526 58 65 0.0 0.0 0.00 0.33 0.00 74 1015.2
20220706153025 55 109 0.0 0.0 0.00 0.33 0.00 80 1015.4
20220706151523 52 111 0.0 0.0 0.00 0.33 0.00 85 1015.5
20220706150012 50 111 0.0 0.0 0.00 0.33 0.00 94 1015.5
20220706144510 48 112 0.0 0.0 0.00 0.33 0.00 97 1015.6
20220706143003 47 112 0.0 0.0 0.00 0.33 0.00 97 1015.6
20220706141505 45 112 0.0 0.0 0.00 0.33 0.00 97 1015.8
20220706140003 44 112 0.0 0.0 0.00 0.33 0.00 97 1015.7
20220706134506 44 112 0.0 0.0 0.00 0.33 0.00 97 1015.7
20220706133002 43 112 0.0 0.0 0.00 0.33 0.00 97 1015.7
20220706131502 44 112 0.0 0.0 0.00 0.33 0.00 97 1015.7
20220706130101 44 112 0.0 0.0 0.00 0.33 0.00 97 1015.5
20220706124614 43 112 0.0 0.0 0.00 0.33 0.00 97 1015.4
20220706123057 43 112 0.0 0.0 0.00 0.33 0.00 97 1015.3
20220706121555 43 112 0.0 0.0 0.00 0.33 0.00 97 1015.0
20220706120053 43 112 0.0 0.0 0.00 0.33 0.00 97 1014.7
20220706114557 43 112 0.0 0.0 0.00 0.33 0.00 97 1014.5
20220706113050 43 112 0.0 0.0 0.00 0.33 0.00 96 1014.5
20220706111554 43 112 0.0 0.0 0.00 0.33 0.00 97 1014.6
20220706110048 43 112 0.0 0.0 0.00 0.33 0.00 96 1014.4
20220706104546 44 112 0.0 0.0 0.00 0.33 0.00 96 1014.3
20220706103044 44 112 0.0 0.0 0.00 0.33 0.00 96 1014.0
20220706101543 45 112 0.0 0.0 0.00 0.33 0.00 96 1014.1
20220706100043 45 112 0.0 0.0 0.00 0.33 0.00 97 1014.0
20220706094542 44 112 0.0 0.0 0.00 0.33 0.00 96 1014.1
20220706093040 44 112 0.0 0.0 0.00 0.33 0.00 96 1014.1
20220706091539 44 112 0.0 0.0 0.00 0.33 0.00 96 1013.9
20220706090041 44 112 0.0 0.0 0.00 0.33 0.00 96 1013.9
20220706084538 44 112 0.0 0.0 0.00 0.33 0.00 96 1014.0
20220706083044 45 112 0.0 0.0 0.00 0.33 0.00 96 1013.8
20220706081541 45 112 0.0 0.0 0.00 0.33 0.00 96 1013.8
20220706080040 45 112 0.0 0.0 0.00 0.33 0.00 96 1013.6
20220706074534 45 112 0.0 0.0 0.00 0.33 0.00 96 1013.7
20220706073034 45 112 0.0 0.0 0.00 0.33 0.00 96 1013.6
20220706071536 46 112 0.0 0.0 0.00 0.33 0.00 96 1013.6
20220706070030 46 112 0.0 0.0 0.00 0.33 0.00 95 1013.5
20220706064529 46 112 0.0 0.0 0.00 0.33 0.00 95 1013.7
20220706063027 46 112 0.0 0.0 0.00 0.33 0.00 95 1013.7
20220706061525 47 112 0.0 0.0 0.00 0.33 0.00 95 1013.4
20220706060023 47 112 0.0 0.0 0.00 0.33 0.00 95 1013.5
20220706054520 47 112 0.0 0.0 0.00 0.33 0.33 94 1013.4
20220706053019 48 112 0.0 0.0 0.00 0.33 0.33 94 1013.2
20220706051523 48 112 0.0 0.0 0.00 0.33 0.33 94 1013.2
20220706050026 48 112 0.0 0.0 0.00 0.33 0.33 94 1013.2
20220706044513 48 112 0.0 0.0 0.00 0.33 0.33 94 1012.9
20220706043014 49 112 0.0 0.0 0.00 0.33 0.33 93 1012.7
20220706041509 49 112 0.0 0.0 0.00 0.33 0.33 93 1012.2
20220706040008 50 112 0.0 0.0 0.00 0.33 0.33 92 1012.0
20220706034509 51 112 0.0 0.0 0.00 0.33 0.33 91 1011.9
20220706033006 52 112 0.0 0.0 0.00 0.33 0.33 90 1011.5
20220706031503 53 74 0.0 0.0 0.00 0.33 0.33 88 1011.2
20220706030007 53 82 0.0 0.0 0.00 0.33 0.33 89 1010.9
20220706024508 54 75 0.0 3.0 0.00 0.33 0.33 85 1010.5
20220706023002 54 138 0.0 1.0 0.00 0.33 0.33 87 1010.6
20220706021500 55 152 0.0 1.0 0.00 0.33 0.33 88 1010.3
20220706020100 56 210 0.0 0.0 0.00 0.33 0.33 85 1010.1
20220706014600 58 212 0.0 0.0 0.00 0.33 0.33 81 1010.1
20220706013102 60 212 0.0 0.0 0.00 0.33 0.33 78 1009.8
20220706011558 61 210 0.0 0.0 0.00 0.33 0.33 76 1009.9
20220706010106 62 218 0.0 4.0 0.00 0.33 0.33 74 1009.8